createdAt,value
2022-12-08T00:00:33.228Z,33.08
2022-12-08T00:03:01.264Z,35.50
2022-12-08T00:05:46.944Z,30.15
2022-12-08T00:08:35.942Z,25.30
2022-12-08T00:11:05.335Z,31.90
2022-12-08T00:13:34.394Z,38.95
2022-12-08T00:16:04.150Z,28.33
2022-12-08T00:18:35.103Z,32.13
2022-12-08T00:21:07.737Z,27.30
2022-12-08T00:23:36.882Z,31.30
2022-12-08T00:26:06.497Z,36.15
2022-12-08T00:28:37.328Z,40.55
2022-12-08T00:31:11.873Z,28.25
2022-12-08T00:33:41.663Z,30.20
2022-12-08T00:36:10.009Z,34.78
2022-12-08T00:38:39.675Z,32.35
2022-12-08T00:41:14.045Z,27.88
2022-12-08T00:43:44.505Z,27.38
2022-12-08T00:46:12.336Z,28.48
2022-12-08T00:48:47.123Z,27.65
2022-12-08T00:51:14.718Z,32.28
2022-12-08T00:53:42.393Z,28.17
2022-12-08T00:56:11.393Z,26.83
2022-12-08T00:58:39.214Z,26.88
2022-12-08T01:01:11.862Z,32.50
2022-12-08T01:03:39.567Z,27.13
2022-12-08T01:06:08.705Z,30.83
2022-12-08T01:08:37.612Z,25.77
2022-12-08T01:11:07.180Z,28.00
2022-12-08T01:13:42.424Z,27.55
2022-12-08T01:16:10.264Z,24.45
2022-12-08T01:18:38.417Z,27.23
2022-12-08T01:21:10.352Z,28.25
2022-12-08T01:23:38.498Z,30.33
2022-12-08T01:26:09.082Z,27.38
2022-12-08T01:28:44.863Z,22.90
2022-12-08T01:31:13.383Z,32.90
2022-12-08T01:33:41.306Z,37.10
2022-12-08T01:36:09.600Z,26.30
2022-12-08T01:38:40.906Z,26.98
2022-12-08T01:41:08.627Z,23.42
2022-12-08T01:43:55.687Z,25.48
2022-12-08T01:46:23.733Z,27.48
2022-12-08T01:48:52.630Z,25.83
2022-12-08T01:51:27.520Z,29.63
2022-12-08T01:53:55.703Z,26.75
2022-12-08T01:56:36.957Z,26.08
2022-12-08T01:59:21.049Z,37.08
2022-12-08T02:01:54.884Z,30.27
2022-12-08T02:04:32.092Z,33.83
2022-12-08T02:07:08.397Z,26.83
2022-12-08T02:09:40.049Z,28.70
2022-12-08T02:12:08.375Z,26.55
2022-12-08T02:14:37.500Z,28.20
2022-12-08T02:17:13.322Z,28.25
2022-12-08T02:19:58.968Z,34.58
2022-12-08T02:22:30.209Z,32.67
2022-12-08T02:25:02.565Z,31.42
2022-12-08T02:27:37.886Z,33.45
2022-12-08T02:30:20.924Z,33.80
2022-12-08T02:33:06.020Z,32.55
2022-12-08T02:35:37.671Z,32.35
2022-12-08T02:38:08.966Z,32.53
2022-12-08T02:40:38.991Z,32.75
2022-12-08T02:43:08.714Z,39.25
2022-12-08T02:45:39.479Z,29.08
2022-12-08T02:48:07.124Z,33.25
2022-12-08T02:50:36.048Z,32.88
2022-12-08T02:55:36.745Z,32.85
2022-12-08T02:58:20.801Z,40.60
2022-12-08T03:00:56.144Z,28.73
2022-12-08T03:03:28.217Z,28.52
2022-12-08T03:06:01.874Z,34.65
2022-12-08T03:08:33.643Z,30.63
2022-12-08T03:11:03.611Z,31.77
2022-12-08T03:13:33.883Z,31.85
2022-12-08T03:16:02.913Z,36.33
2022-12-08T03:18:32.370Z,29.48
2022-12-08T03:21:01.498Z,36.80
2022-12-08T03:23:30.366Z,31.38
2022-12-08T03:25:59.571Z,33.97
2022-12-08T03:28:27.900Z,25.60
2022-12-08T03:30:57.001Z,32.35
2022-12-08T03:33:26.495Z,36.80
2022-12-08T03:35:57.976Z,31.02
2022-12-08T03:38:26.881Z,36.40
2022-12-08T03:41:08.545Z,36.05
2022-12-08T03:43:36.436Z,33.10
2022-12-08T03:46:04.128Z,28.83
2022-12-08T03:48:31.854Z,31.63
2022-12-08T03:50:59.456Z,38.08
2022-12-08T03:53:28.307Z,37.35
2022-12-08T03:55:55.917Z,30.02
2022-12-08T03:58:23.476Z,39.90
2022-12-08T04:00:51.079Z,39.67
2022-12-08T04:03:18.628Z,33.60
2022-12-08T04:05:46.113Z,37.92
2022-12-08T04:08:13.942Z,37.33
2022-12-08T04:10:43.382Z,43.55
2022-12-08T04:13:10.910Z,37.95
2022-12-08T04:15:38.957Z,50.83
2022-12-08T04:18:06.500Z,46.63
2022-12-08T04:20:34.011Z,38.75
2022-12-08T04:23:01.839Z,32.95
2022-12-08T04:25:29.931Z,35.08
2022-12-08T04:27:58.778Z,37.35
2022-12-08T04:30:26.266Z,39.83
2022-12-08T04:32:53.799Z,41.97
2022-12-08T04:35:21.366Z,40.97
2022-12-08T04:37:49.010Z,39.65
2022-12-08T04:40:16.669Z,41.88
2022-12-08T04:42:44.523Z,42.08
2022-12-08T04:45:13.721Z,42.38
2022-12-08T04:47:41.219Z,44.55
2022-12-08T04:50:09.654Z,37.75
2022-12-08T04:52:37.130Z,40.47
2022-12-08T04:55:04.965Z,32.50
2022-12-08T04:57:32.471Z,34.55
2022-12-08T05:00:00.148Z,40.70
2022-12-08T05:02:29.574Z,45.40
2022-12-08T05:04:57.090Z,39.75
2022-12-08T05:07:25.173Z,37.67
2022-12-08T05:09:52.913Z,39.83
2022-12-08T05:12:20.870Z,30.95
2022-12-08T05:14:48.666Z,36.10
2022-12-08T05:17:16.299Z,40.72
2022-12-08T05:19:46.214Z,42.92
2022-12-08T05:22:13.738Z,44.35
2022-12-08T05:24:47.012Z,42.33
2022-12-08T05:27:15.115Z,41.33
2022-12-08T05:29:42.991Z,44.95
2022-12-08T05:32:10.466Z,39.55
2022-12-08T05:34:38.021Z,47.13
2022-12-08T05:37:06.937Z,46.97
2022-12-08T05:39:34.457Z,51.08
2022-12-08T05:42:02.008Z,42.72
2022-12-08T05:44:29.548Z,42.85
2022-12-08T05:46:57.159Z,49.53
2022-12-08T05:49:25.181Z,44.80
2022-12-08T05:51:52.957Z,46.22
2022-12-08T05:54:22.002Z,42.08
2022-12-08T05:56:49.478Z,51.60
2022-12-08T05:59:20.171Z,45.42
2022-12-08T06:01:47.864Z,45.40
2022-12-08T06:04:15.483Z,42.65
2022-12-08T06:06:43.123Z,40.55
2022-12-08T06:09:12.550Z,39.15
2022-12-08T06:11:46.843Z,48.58
2022-12-08T06:14:14.494Z,44.83
2022-12-08T06:16:42.504Z,45.90
2022-12-08T06:19:11.160Z,36.60
2022-12-08T06:21:39.679Z,40.33
2022-12-08T06:24:10.482Z,48.92
2022-12-08T06:26:40.688Z,43.80
2022-12-08T06:29:13.345Z,39.58
2022-12-08T06:31:48.579Z,49.33
2022-12-08T06:34:17.241Z,49.53
2022-12-08T06:36:45.590Z,55.22
2022-12-08T06:39:17.452Z,49.22
2022-12-08T06:42:11.491Z,44.55
2022-12-08T06:44:41.201Z,53.17
2022-12-08T06:47:09.238Z,39.80
2022-12-08T06:49:38.502Z,41.70
2022-12-08T06:52:15.963Z,54.33
2022-12-08T06:55:50.843Z,55.28
2022-12-08T07:01:26.566Z,48.47
2022-12-08T07:03:55.984Z,46.75
2022-12-08T07:06:25.125Z,52.90
2022-12-08T07:08:52.998Z,45.17
2022-12-08T07:11:22.273Z,51.13
2022-12-08T07:13:53.134Z,45.28
2022-12-08T07:16:21.004Z,55.00
2022-12-08T07:18:50.835Z,49.05
2022-12-08T07:21:19.049Z,56.40
2022-12-08T07:23:50.236Z,56.63
2022-12-08T07:26:22.707Z,52.00
2022-12-08T07:28:50.397Z,55.22
2022-12-08T07:31:19.799Z,55.55
2022-12-08T07:33:48.867Z,60.15
2022-12-08T07:36:18.715Z,51.78
2022-12-08T07:38:48.392Z,46.83
2022-12-08T07:41:19.685Z,49.55
2022-12-08T07:43:49.822Z,54.85
2022-12-08T07:46:51.029Z,54.22
2022-12-08T07:49:20.939Z,52.60
2022-12-08T07:51:58.886Z,58.28
2022-12-08T07:54:26.723Z,45.95
2022-12-08T07:56:54.431Z,54.72
2022-12-08T07:59:21.974Z,56.75
2022-12-08T08:02:13.169Z,50.05
2022-12-08T08:04:40.003Z,56.30
2022-12-08T08:07:09.077Z,45.22
2022-12-08T08:09:36.965Z,49.40
2022-12-08T08:12:29.457Z,50.83
2022-12-08T08:14:52.225Z,53.60
2022-12-08T08:17:22.306Z,46.80
2022-12-08T08:19:49.976Z,50.90
2022-12-08T08:22:18.923Z,47.95
2022-12-08T08:24:46.453Z,43.50
2022-12-08T08:27:14.620Z,47.15
2022-12-08T08:29:42.192Z,58.70
2022-12-08T08:32:10.256Z,48.10
2022-12-08T08:34:37.844Z,53.72
2022-12-08T08:37:05.325Z,61.90
2022-12-08T08:39:36.529Z,49.20
2022-12-08T08:42:04.092Z,53.50
2022-12-08T08:44:32.820Z,63.42
2022-12-08T08:47:01.144Z,50.00
2022-12-08T08:49:31.665Z,54.70
2022-12-08T08:52:12.222Z,50.53
2022-12-08T08:54:41.456Z,59.40
2022-12-08T08:57:09.965Z,54.80
2022-12-08T08:59:37.738Z,58.83
2022-12-08T09:02:05.361Z,53.30
2022-12-08T09:04:33.891Z,50.88
2022-12-08T09:07:02.328Z,50.80
2022-12-08T09:09:30.921Z,62.50
2022-12-08T09:12:00.184Z,56.97
2022-12-08T09:14:27.920Z,57.05
2022-12-08T09:16:55.522Z,46.55
2022-12-08T09:19:23.075Z,48.55
2022-12-08T09:21:50.619Z,51.80
2022-12-08T09:24:18.231Z,54.13
2022-12-08T09:26:46.856Z,51.20
2022-12-08T09:29:17.708Z,61.97
2022-12-08T09:31:45.746Z,69.63
2022-12-08T09:34:14.483Z,64.68
2022-12-08T09:36:42.023Z,63.72
2022-12-08T09:39:09.609Z,55.33
2022-12-08T09:41:44.869Z,54.50
2022-12-08T09:44:24.916Z,51.55
2022-12-08T11:44:21.763Z,65.32
2022-12-08T11:46:52.678Z,64.03
2022-12-08T11:49:21.495Z,77.15
2022-12-08T11:51:52.465Z,78.45
2022-12-08T11:54:25.848Z,80.85
2022-12-08T11:56:55.399Z,94.20
2022-12-08T11:59:27.587Z,68.57
2022-12-08T12:01:55.417Z,73.95
2022-12-08T12:04:30.405Z,79.22
2022-12-08T12:07:10.348Z,77.57
2022-12-08T12:09:45.850Z,74.47
2022-12-08T12:12:17.117Z,74.70
2022-12-08T12:14:57.860Z,78.43
2022-12-08T12:17:30.946Z,76.72
2022-12-08T12:20:00.635Z,63.25
2022-12-08T12:22:34.196Z,82.15
2022-12-08T12:25:02.620Z,70.13
2022-12-08T12:27:31.997Z,73.40
2022-12-08T12:30:05.680Z,72.32
2022-12-08T12:32:42.019Z,72.78
2022-12-08T12:35:15.253Z,75.63
2022-12-08T12:37:45.323Z,74.17
2022-12-08T12:40:18.615Z,67.60
2022-12-08T12:42:54.401Z,68.10
2022-12-08T12:45:28.925Z,68.78
2022-12-08T12:48:11.278Z,61.70
2022-12-08T12:50:43.398Z,75.47
2022-12-08T12:53:26.210Z,75.18
2022-12-08T12:55:55.958Z,66.70
2022-12-08T12:58:34.393Z,67.00
2022-12-08T13:01:20.754Z,64.78
2022-12-08T13:03:51.683Z,69.65
2022-12-08T13:06:23.837Z,75.47
2022-12-08T13:08:52.755Z,74.45
2022-12-08T13:11:20.533Z,64.35
2022-12-08T13:13:56.813Z,61.53
2022-12-08T13:16:31.500Z,59.40
2022-12-08T13:19:02.537Z,62.00
2022-12-08T13:21:34.918Z,70.43
2022-12-08T13:24:23.169Z,74.43
2022-12-08T13:27:11.847Z,66.10
2022-12-08T13:29:40.132Z,59.40
2022-12-08T13:32:48.840Z,59.30
2022-12-08T13:35:21.473Z,53.20
2022-12-08T13:37:55.178Z,57.55
2022-12-08T13:40:25.226Z,61.40
2022-12-08T13:43:01.852Z,64.82
2022-12-08T13:48:35.196Z,59.30
2022-12-08T13:57:10.570Z,53.65
2022-12-08T13:59:44.071Z,61.88
2022-12-08T14:02:17.462Z,59.17
2022-12-08T14:07:35.014Z,74.13
2022-12-08T14:10:03.960Z,60.22
2022-12-08T14:12:32.146Z,71.97
2022-12-08T14:15:03.610Z,67.70
2022-12-08T14:17:43.084Z,65.60
2022-12-08T14:20:19.260Z,55.58
2022-12-08T14:22:50.396Z,57.72
2022-12-08T14:25:19.349Z,63.65
2022-12-08T14:27:47.344Z,62.47
2022-12-08T14:30:19.722Z,76.63
2022-12-08T14:32:50.089Z,76.45
2022-12-08T14:35:22.109Z,64.70
2022-12-08T14:37:53.002Z,55.00
2022-12-08T14:40:24.995Z,56.30
2022-12-08T14:42:53.844Z,57.97
2022-12-08T14:45:26.727Z,66.20
2022-12-08T14:48:10.449Z,52.88
2022-12-08T14:50:48.838Z,61.55
2022-12-08T14:53:24.665Z,68.18
2022-12-08T14:55:53.526Z,58.03
2022-12-08T14:58:28.948Z,67.22
2022-12-08T15:01:14.464Z,56.55
2022-12-08T15:03:47.226Z,55.65
2022-12-08T15:06:21.077Z,54.85
2022-12-08T15:08:55.677Z,64.78
2022-12-08T15:11:29.255Z,63.25
2022-12-08T15:13:57.564Z,65.55
2022-12-08T15:16:51.129Z,57.85
2022-12-08T15:19:26.480Z,53.90
2022-12-08T15:22:00.731Z,49.92
2022-12-08T15:24:39.831Z,70.75
2022-12-08T15:27:07.489Z,77.18
2022-12-08T15:29:36.185Z,58.22
2022-12-08T15:32:03.966Z,68.45
2022-12-08T15:34:32.745Z,66.57
2022-12-08T15:37:00.706Z,65.07
2022-12-08T15:39:34.314Z,67.30
2022-12-08T15:42:02.813Z,82.55
2022-12-08T15:44:33.139Z,58.50
2022-12-08T15:47:01.560Z,64.38
2022-12-08T15:49:29.485Z,56.63
2022-12-08T15:52:11.128Z,61.97
2022-12-08T15:54:41.073Z,58.97
2022-12-08T15:57:20.501Z,72.78
2022-12-08T15:59:57.604Z,74.90
2022-12-08T16:02:25.523Z,69.47
2022-12-08T16:07:42.821Z,94.15
2022-12-08T16:10:16.557Z,83.15
2022-12-08T16:15:59.854Z,70.60
2022-12-08T16:18:29.345Z,72.80
2022-12-08T16:21:31.553Z,73.22
2022-12-08T16:23:45.538Z,83.85
2022-12-08T16:26:28.615Z,62.67
2022-12-08T16:29:12.917Z,58.72
2022-12-08T16:31:40.823Z,82.03
2022-12-08T16:34:08.508Z,77.13
2022-12-08T16:36:36.117Z,65.57
2022-12-08T16:39:04.081Z,65.22
2022-12-08T16:41:52.117Z,79.05
2022-12-08T16:44:19.968Z,75.53
2022-12-08T16:46:47.456Z,72.95
2022-12-08T16:49:34.912Z,83.45
2022-12-08T16:52:02.505Z,60.65
2022-12-08T16:54:32.157Z,80.43
2022-12-08T16:57:01.041Z,81.63
2022-12-08T16:59:32.197Z,68.95
2022-12-08T17:02:05.723Z,49.92
2022-12-08T17:04:33.391Z,72.90
2022-12-08T17:07:02.100Z,69.65
2022-12-08T17:09:31.994Z,51.63
2022-12-08T17:12:04.013Z,52.85
2022-12-08T17:14:36.302Z,55.38
2022-12-08T17:17:04.397Z,80.65
2022-12-08T17:19:32.056Z,53.42
2022-12-08T17:21:59.671Z,49.70
2022-12-08T17:24:29.239Z,51.05
2022-12-08T17:26:57.039Z,43.55
2022-12-08T17:29:28.870Z,44.17
2022-12-08T17:31:56.509Z,39.95
2022-12-08T17:34:24.346Z,43.72
2022-12-08T17:36:52.987Z,53.03
2022-12-08T17:39:20.906Z,48.28
2022-12-08T17:41:49.302Z,43.17
2022-12-08T17:44:18.060Z,48.67
2022-12-08T17:46:52.908Z,48.80
2022-12-08T17:49:21.465Z,36.50
2022-12-08T17:51:49.213Z,50.35
2022-12-08T17:54:17.088Z,50.45
2022-12-08T17:56:45.103Z,36.83
2022-12-08T17:59:13.251Z,43.53
2022-12-08T18:01:41.340Z,49.15
2022-12-08T18:04:10.619Z,40.22
2022-12-08T18:06:38.859Z,42.08
2022-12-08T18:09:07.485Z,53.20
2022-12-08T18:11:35.779Z,41.40
2022-12-08T18:14:09.459Z,41.70
2022-12-08T18:16:38.052Z,43.03
2022-12-08T18:19:06.346Z,42.67
2022-12-08T18:21:35.426Z,41.42
2022-12-08T18:24:03.400Z,48.97
2022-12-08T18:26:34.053Z,53.47
2022-12-08T18:29:02.115Z,61.30
2022-12-08T18:31:30.407Z,48.92
2022-12-08T18:33:59.277Z,64.55
2022-12-08T18:36:31.817Z,59.75
2022-12-08T18:39:03.449Z,50.72
2022-12-08T18:41:34.518Z,46.22
2022-12-08T18:44:02.168Z,46.20
2022-12-08T18:46:32.885Z,44.80
2022-12-08T18:49:03.482Z,47.63
2022-12-08T18:51:32.579Z,38.53
2022-12-08T18:54:02.384Z,31.65
2022-12-08T18:56:31.004Z,35.15
2022-12-08T18:59:03.236Z,35.30
2022-12-08T19:01:32.502Z,41.53
2022-12-08T19:06:47.863Z,35.08
2022-12-08T19:09:17.133Z,49.08
2022-12-08T19:11:45.396Z,47.00
2022-12-08T19:14:13.097Z,38.95
2022-12-08T19:16:40.656Z,40.70
2022-12-08T19:19:08.354Z,41.95
2022-12-08T19:21:38.261Z,42.40
2022-12-08T19:24:12.805Z,52.83
2022-12-08T19:26:42.911Z,46.70
2022-12-08T19:29:10.779Z,56.42
2022-12-08T19:31:38.834Z,68.35
2022-12-08T19:34:09.861Z,57.08
2022-12-08T19:36:42.504Z,72.28
2022-12-08T19:39:30.551Z,67.05
2022-12-08T19:42:24.733Z,72.35
2022-12-08T19:45:04.435Z,62.17
2022-12-08T19:47:40.743Z,68.18
2022-12-08T19:50:38.978Z,84.93
2022-12-08T19:53:07.298Z,86.93
2022-12-08T19:55:35.024Z,74.03
2022-12-08T19:58:03.945Z,84.93
2022-12-08T20:00:32.849Z,63.38
2022-12-08T20:03:01.793Z,64.97
2022-12-08T20:05:31.110Z,64.18
2022-12-08T20:07:59.406Z,58.05
2022-12-08T20:10:28.797Z,59.95
2022-12-08T20:13:15.398Z,45.53
2022-12-08T20:23:00.181Z,38.78
2022-12-08T20:25:36.971Z,45.47
2022-12-08T20:28:15.462Z,50.53
2022-12-08T20:30:49.082Z,55.83
2022-12-08T20:33:17.350Z,50.50
2022-12-08T20:35:45.276Z,45.10
2022-12-08T20:38:25.985Z,53.13
2022-12-08T20:42:38.145Z,44.90
2022-12-08T20:44:08.443Z,58.08
2022-12-08T20:46:44.966Z,49.03
2022-12-08T20:51:58.349Z,62.22
2022-12-08T20:54:28.146Z,51.53
2022-12-08T20:56:57.273Z,60.47
2022-12-08T20:59:26.561Z,53.50
2022-12-08T21:01:55.973Z,53.60
2022-12-08T21:04:24.027Z,44.10
2022-12-08T21:06:51.856Z,51.70
2022-12-08T21:09:19.716Z,62.58
2022-12-08T21:11:56.127Z,57.40
2022-12-08T21:14:23.862Z,58.85
2022-12-08T21:16:51.589Z,51.17
2022-12-08T21:19:23.001Z,69.10
2022-12-08T21:21:51.635Z,53.75
2022-12-08T21:24:19.349Z,61.13
2022-12-08T21:26:48.618Z,67.57
2022-12-08T21:29:16.396Z,62.22
2022-12-08T21:31:44.177Z,66.68
2022-12-08T21:34:12.117Z,70.03
2022-12-08T21:36:39.758Z,71.22
2022-12-08T21:39:12.705Z,96.63
2022-12-08T21:41:57.314Z,74.70
2022-12-08T21:46:53.824Z,66.15
2022-12-08T21:49:24.743Z,49.35
2022-12-08T21:51:52.598Z,57.47
2022-12-08T21:54:20.278Z,55.90
2022-12-08T21:56:48.701Z,58.92
2022-12-08T21:59:22.635Z,43.22
2022-12-08T22:01:50.360Z,55.03
2022-12-08T22:04:21.965Z,59.92
2022-12-08T22:06:55.123Z,47.47
2022-12-08T22:09:31.641Z,51.50
2022-12-08T22:12:01.868Z,60.08
2022-12-08T22:14:29.815Z,42.42
2022-12-08T22:16:59.160Z,42.20
2022-12-08T22:19:28.120Z,46.78
2022-12-08T22:21:57.136Z,43.70
2022-12-08T22:24:24.891Z,40.50
2022-12-08T22:26:52.653Z,42.33
2022-12-08T22:29:20.337Z,38.22
2022-12-08T22:31:47.945Z,37.97
2022-12-08T22:34:16.709Z,33.03
2022-12-08T22:36:54.483Z,50.53
2022-12-08T22:39:22.019Z,51.67
2022-12-08T22:41:49.668Z,43.92
2022-12-08T22:44:17.418Z,47.97
2022-12-08T22:46:45.106Z,49.72
2022-12-08T22:49:13.613Z,49.65
2022-12-08T22:51:41.714Z,42.90
2022-12-08T22:54:12.176Z,44.88
2022-12-08T22:56:40.644Z,53.53
2022-12-08T22:59:08.324Z,51.28
2022-12-08T23:01:35.969Z,42.22
2022-12-08T23:04:03.915Z,49.70
2022-12-08T23:06:31.706Z,40.00
2022-12-08T23:08:59.685Z,49.50
2022-12-08T23:11:30.337Z,36.28
2022-12-08T23:13:59.809Z,41.72
2022-12-08T23:16:27.758Z,38.85
2022-12-08T23:18:55.463Z,38.30
2022-12-08T23:21:22.969Z,39.40
2022-12-08T23:23:50.501Z,39.75
2022-12-08T23:26:19.393Z,44.03
2022-12-08T23:28:48.635Z,42.88
2022-12-08T23:31:16.864Z,45.42
2022-12-08T23:33:44.788Z,47.47
2022-12-08T23:36:12.964Z,44.25
2022-12-08T23:38:40.417Z,27.92
2022-12-08T23:41:09.065Z,34.55
2022-12-08T23:43:37.031Z,38.45
2022-12-08T23:46:08.527Z,31.55
2022-12-08T23:48:36.158Z,39.60
2022-12-08T23:51:03.745Z,36.65
2022-12-08T23:53:31.484Z,32.53
2022-12-08T23:55:59.746Z,29.73
2022-12-08T23:58:27.230Z,32.35
